Time;durP1;ratioP1;P1;durP2;ratioP2;P2;SDS_P1;SDS_P2;PMS_P1;PMS_P2;Temp;Humidity;BMP_temperature;BMP_pressure;BME280_temperature;BME280_humidity;BME280_pressure;Samples;Min_cycle;Max_cycle;Signal;HPM_P1;HPM_P2
2023/01/04 00:00:00;;;;;;;15.70;9.60;;;;;;;;;;4969501;28;20230;-76
2023/01/04 00:02:28;;;;;;;14.27;9.20;;;;;;;;;;4975191;28;20215;-74
2023/01/04 00:04:56;;;;;;;15.00;9.53;;;;;;;;;;4967463;28;20211;-80
2023/01/04 00:07:24;;;;;;;12.77;8.93;;;;;;;;;;4969998;28;20240;-74
2023/01/04 00:09:51;;;;;;;14.07;9.63;;;;;;;;;;4971884;28;20253;-77
2023/01/04 00:12:18;;;;;;;16.03;10.83;;;;;;;;;;4971750;28;20216;-76
2023/01/04 00:14:46;;;;;;;15.47;9.47;;;;;;;;;;4985227;28;20224;-78
2023/01/04 00:17:13;;;;;;;13.90;9.60;;;;;;;;;;4978373;28;20314;-75
2023/01/04 00:19:40;;;;;;;19.47;10.53;;;;;;;;;;4981601;28;20708;-77
2023/01/04 00:22:07;;;;;;;13.63;8.87;;;;;;;;;;4984261;28;20666;-75
2023/01/04 00:24:35;;;;;;;15.13;9.77;;;;;;;;;;4990121;28;20295;-75
2023/01/04 00:27:02;;;;;;;13.20;9.17;;;;;;;;;;4985020;28;20776;-76
2023/01/04 00:29:29;;;;;;;13.57;8.80;;;;;;;;;;4984507;28;20216;-77
2023/01/04 00:31:56;;;;;;;14.10;9.10;;;;;;;;;;4988972;28;20200;-76
2023/01/04 00:34:23;;;;;;;13.27;8.53;;;;;;;;;;4984270;28;20266;-78
2023/01/04 00:36:51;;;;;;;14.87;9.53;;;;;;;;;;4982355;28;20220;-78
2023/01/04 00:39:18;;;;;;;14.47;8.40;;;;;;;;;;4987396;28;20200;-75
2023/01/04 00:41:49;;;;;;;14.37;9.23;;;;;;;;;;4970102;28;20200;-77
2023/01/04 00:44:27;;;;;;;15.53;8.67;;;;;;;;;;4991958;28;20200;-77
2023/01/04 00:46:54;;;;;;;12.63;8.30;;;;;;;;;;4981393;28;20224;-76
2023/01/04 00:49:21;;;;;;;12.67;8.73;;;;;;;;;;4979199;28;20300;-77
2023/01/04 00:51:49;;;;;;;14.60;8.27;;;;;;;;;;4977982;28;20208;-76
2023/01/04 00:54:16;;;;;;;14.13;8.53;;;;;;;;;;4980823;28;20236;-79
2023/01/04 00:56:44;;;;;;;13.77;8.93;;;;;;;;;;4977532;28;20326;-74
2023/01/04 00:59:15;;;;;;;15.27;8.40;;;;;;;;;;4973776;28;20208;-75
2023/01/04 01:01:42;;;;;;;12.57;7.80;;;;;;;;;;4974032;28;20211;-77
2023/01/04 01:04:11;;;;;;;13.03;8.37;;;;;;;;;;4975690;28;20790;-75
2023/01/04 01:06:39;;;;;;;13.53;8.60;;;;;;;;;;4979765;28;20256;-77
2023/01/04 01:09:06;;;;;;;13.53;8.37;;;;;;;;;;4982902;28;20238;-80
2023/01/04 01:11:35;;;;;;;12.10;8.40;;;;;;;;;;4981991;28;20204;-76
2023/01/04 01:14:02;;;;;;;13.40;8.03;;;;;;;;;;4968045;28;20208;-77
2023/01/04 01:16:30;;;;;;;11.57;7.63;;;;;;;;;;4970399;28;20304;-78
2023/01/04 01:19:17;;;;;;;10.77;7.63;;;;;;;;;;4975853;28;20213;-78
2023/01/04 01:21:44;;;;;;;11.60;7.63;;;;;;;;;;4967928;28;20228;-77
2023/01/04 01:24:15;;;;;;;10.83;8.13;;;;;;;;;;4975054;28;20211;-77
2023/01/04 01:26:42;;;;;;;10.50;7.27;;;;;;;;;;4966705;28;20244;-75
2023/01/04 01:29:10;;;;;;;12.03;7.63;;;;;;;;;;4973148;28;20208;-76
2023/01/04 01:31:37;;;;;;;11.47;7.83;;;;;;;;;;4971313;28;20212;-78
2023/01/04 01:34:04;;;;;;;12.70;8.60;;;;;;;;;;4975264;28;20208;-76
2023/01/04 01:36:32;;;;;;;15.80;8.90;;;;;;;;;;4970654;28;20210;-76
2023/01/04 01:39:00;;;;;;;12.43;8.60;;;;;;;;;;4968414;28;20218;-75
2023/01/04 01:41:29;;;;;;;13.60;7.80;;;;;;;;;;4976508;28;21882;-77
2023/01/04 01:43:58;;;;;;;13.27;7.77;;;;;;;;;;4980620;28;20295;-76
2023/01/04 01:46:45;;;;;;;15.63;7.47;;;;;;;;;;4974998;28;21282;-77
2023/01/04 01:49:28;;;;;;;13.60;8.40;;;;;;;;;;4980586;28;20209;-77
2023/01/04 01:51:57;;;;;;;16.37;7.93;;;;;;;;;;4977583;28;20196;-76
2023/01/04 01:54:38;;;;;;;14.70;8.23;;;;;;;;;;4973518;28;20213;-76
2023/01/04 01:57:07;;;;;;;16.37;9.40;;;;;;;;;;4967947;28;20220;-76
2023/01/04 01:59:36;;;;;;;13.80;9.07;;;;;;;;;;4970721;28;20212;-79
2023/01/04 02:02:03;;;;;;;13.53;8.90;;;;;;;;;;4967558;28;20303;-78
2023/01/04 02:04:31;;;;;;;12.37;8.60;;;;;;;;;;4968617;28;20233;-76
2023/01/04 02:06:59;;;;;;;14.33;9.40;;;;;;;;;;4968090;28;20332;-76
2023/01/04 02:09:26;;;;;;;16.60;9.93;;;;;;;;;;4980849;28;20208;-76
2023/01/04 02:11:53;;;;;;;16.63;8.97;;;;;;;;;;4976335;28;20208;-76
2023/01/04 02:14:27;;;;;;;16.03;9.53;;;;;;;;;;4978519;28;20665;-75
2023/01/04 02:16:55;;;;;;;14.20;8.93;;;;;;;;;;4982575;28;20279;-75
2023/01/04 02:19:41;;;;;;;13.90;8.73;;;;;;;;;;4978871;28;20208;-77
2023/01/04 02:22:11;;;;;;;14.30;8.30;;;;;;;;;;4968361;28;20642;-77
2023/01/04 02:24:57;;;;;;;13.40;8.63;;;;;;;;;;4981545;28;20318;-76
2023/01/04 02:27:30;;;;;;;13.77;8.93;;;;;;;;;;4977977;28;20238;-77
2023/01/04 02:30:01;;;;;;;14.27;8.90;;;;;;;;;;4981996;28;20247;-76
2023/01/04 02:32:34;;;;;;;13.07;8.23;;;;;;;;;;4977492;28;20208;-77
2023/01/04 02:35:07;;;;;;;11.40;8.43;;;;;;;;;;4976160;28;20257;-78
2023/01/04 02:37:45;;;;;;;11.37;8.00;;;;;;;;;;4956737;28;20228;-75
2023/01/04 02:40:34;;;;;;;11.83;8.07;;;;;;;;;;4978524;28;20196;-77
2023/01/04 02:46:05;;;;;;;11.80;7.10;;;;;;;;;;4975154;28;20234;-78
2023/01/04 02:51:27;;;;;;;9.50;7.20;;;;;;;;;;4960701;28;20765;-80
2023/01/04 02:53:55;;;;;;;10.13;7.77;;;;;;;;;;4973821;28;20216;-77
2023/01/04 02:56:41;;;;;;;13.70;6.97;;;;;;;;;;4976144;28;20284;-79
2023/01/04 02:59:14;;;;;;;9.97;7.00;;;;;;;;;;4964486;28;20298;-77
2023/01/04 03:07:45;;;;;;;8.93;6.07;;;;;;;;;;4977646;28;20281;-77
2023/01/04 03:10:20;;;;;;;10.57;6.97;;;;;;;;;;4975614;28;20236;-78
2023/01/04 03:12:51;;;;;;;10.40;7.07;;;;;;;;;;4976047;28;20208;-78
2023/01/04 03:15:23;;;;;;;10.30;6.63;;;;;;;;;;4972577;28;20250;-76
2023/01/04 03:17:53;;;;;;;9.63;6.20;;;;;;;;;;4976232;28;20220;-76
2023/01/04 03:20:21;;;;;;;9.17;6.43;;;;;;;;;;4976137;28;20200;-78
2023/01/04 03:37:17;;;;;;;9.67;6.60;;;;;;;;;;4976479;28;20388;-77
2023/01/04 03:48:32;;;;;;;9.60;6.50;;;;;;;;;;4978874;28;20221;-77
2023/01/04 03:51:25;;;;;;;9.70;6.40;;;;;;;;;;4976531;28;20267;-76
2023/01/04 03:54:02;;;;;;;7.40;6.20;;;;;;;;;;4970588;28;20200;-77
2023/01/04 03:56:31;;;;;;;10.03;6.20;;;;;;;;;;4961450;28;20493;-77
2023/01/04 03:58:58;;;;;;;10.50;6.60;;;;;;;;;;4969567;28;20240;-78
2023/01/04 04:01:26;;;;;;;9.97;6.53;;;;;;;;;;4978411;28;20573;-76
2023/01/04 04:09:26;;;;;;;11.60;7.17;;;;;;;;;;4969440;28;20208;-79
2023/01/04 04:11:53;;;;;;;10.73;7.07;;;;;;;;;;4982343;28;20233;-76
2023/01/04 04:14:21;;;;;;;10.57;6.97;;;;;;;;;;4979445;28;20296;-76
2023/01/04 04:16:48;;;;;;;9.93;7.00;;;;;;;;;;4981557;28;20286;-78
2023/01/04 04:19:15;;;;;;;10.53;7.27;;;;;;;;;;4973422;28;20638;-75
2023/01/04 04:21:43;;;;;;;11.40;7.60;;;;;;;;;;4965133;28;20209;-77
2023/01/04 04:24:20;;;;;;;9.87;7.13;;;;;;;;;;4988417;28;20200;-77
2023/01/04 04:26:47;;;;;;;10.73;7.10;;;;;;;;;;4981651;28;20252;-77
2023/01/04 04:29:14;;;;;;;11.17;7.17;;;;;;;;;;4980408;28;20238;-77
2023/01/04 04:31:42;;;;;;;11.47;7.63;;;;;;;;;;4974744;28;20286;-77
2023/01/04 04:34:10;;;;;;;11.30;7.27;;;;;;;;;;4981649;28;20207;-76
2023/01/04 04:36:37;;;;;;;11.50;7.40;;;;;;;;;;4972743;28;20240;-75
2023/01/04 04:39:04;;;;;;;10.27;7.37;;;;;;;;;;4977398;28;20615;-78
2023/01/04 04:41:37;;;;;;;9.83;7.13;;;;;;;;;;4957181;28;20628;-76
2023/01/04 04:44:06;;;;;;;11.93;7.07;;;;;;;;;;4980514;28;20235;-76
2023/01/04 04:46:33;;;;;;;10.30;7.40;;;;;;;;;;4965311;28;20231;-78
2023/01/04 04:49:00;;;;;;;10.60;7.73;;;;;;;;;;4968285;28;20238;-75
2023/01/04 04:51:27;;;;;;;10.63;7.50;;;;;;;;;;4966476;28;20673;-78
2023/01/04 04:53:55;;;;;;;10.97;7.47;;;;;;;;;;4980216;28;20204;-76
2023/01/04 04:56:22;;;;;;;9.97;7.33;;;;;;;;;;4985417;28;20230;-75
2023/01/04 04:58:49;;;;;;;11.33;7.87;;;;;;;;;;4969968;28;20669;-78
2023/01/04 05:01:16;;;;;;;11.40;7.93;;;;;;;;;;4975787;28;20208;-76
2023/01/04 05:03:44;;;;;;;16.00;7.77;;;;;;;;;;4994500;28;20251;-77
2023/01/04 05:06:12;;;;;;;12.87;8.20;;;;;;;;;;4981834;28;20724;-78
2023/01/04 05:08:40;;;;;;;14.77;9.80;;;;;;;;;;4979434;28;20235;-79
2023/01/04 05:11:08;;;;;;;12.80;9.43;;;;;;;;;;4972101;28;20290;-78
2023/01/04 05:13:35;;;;;;;12.77;9.10;;;;;;;;;;4972729;28;20212;-77
2023/01/04 05:16:03;;;;;;;11.67;7.43;;;;;;;;;;4969368;28;20319;-76
2023/01/04 05:18:31;;;;;;;11.20;7.67;;;;;;;;;;4967414;28;20768;-79
2023/01/04 05:20:58;;;;;;;11.50;8.87;;;;;;;;;;4975168;28;20303;-77
2023/01/04 05:23:26;;;;;;;13.00;7.33;;;;;;;;;;4967763;28;20212;-75
2023/01/04 05:25:55;;;;;;;10.27;6.97;;;;;;;;;;4972115;28;20209;-77
2023/01/04 05:28:22;;;;;;;13.23;8.60;;;;;;;;;;4966963;28;20697;-77
2023/01/04 05:30:50;;;;;;;10.93;7.20;;;;;;;;;;4971977;28;20210;-77
2023/01/04 05:33:21;;;;;;;10.73;7.03;;;;;;;;;;4967971;28;20200;-79
2023/01/04 05:35:49;;;;;;;11.07;6.93;;;;;;;;;;4969495;28;20585;-78
2023/01/04 05:38:16;;;;;;;10.40;6.87;;;;;;;;;;4975811;28;20228;-79
2023/01/04 05:40:44;;;;;;;11.43;7.03;;;;;;;;;;4967322;28;20217;-77
2023/01/04 05:43:12;;;;;;;8.17;6.40;;;;;;;;;;4972267;28;20296;-79
2023/01/04 05:45:40;;;;;;;9.23;6.87;;;;;;;;;;4972631;28;20279;-79
2023/01/04 05:48:07;;;;;;;10.57;6.70;;;;;;;;;;4965894;28;20236;-78
2023/01/04 05:50:35;;;;;;;9.43;6.87;;;;;;;;;;4958331;28;20229;-77
2023/01/04 05:53:03;;;;;;;9.33;6.73;;;;;;;;;;4970363;28;20200;-78
2023/01/04 05:55:31;;;;;;;11.10;7.10;;;;;;;;;;4976777;28;20704;-79
2023/01/04 05:57:59;;;;;;;9.83;7.00;;;;;;;;;;4973923;28;20220;-78
2023/01/04 06:00:27;;;;;;;11.43;8.20;;;;;;;;;;4970593;28;20380;-77
2023/01/04 06:02:55;;;;;;;11.90;8.33;;;;;;;;;;4973025;28;20212;-79
2023/01/04 06:05:23;;;;;;;10.57;6.67;;;;;;;;;;4968775;28;20285;-79
2023/01/04 06:07:51;;;;;;;9.30;6.47;;;;;;;;;;4970779;28;20327;-80
2023/01/04 06:10:18;;;;;;;9.17;7.07;;;;;;;;;;4984740;28;20197;-76
2023/01/04 06:12:46;;;;;;;10.97;7.13;;;;;;;;;;4973718;28;20250;-76
2023/01/04 06:15:14;;;;;;;10.13;6.43;;;;;;;;;;4978562;28;20204;-79
2023/01/04 06:17:41;;;;;;;9.73;6.20;;;;;;;;;;4978759;28;20232;-77
2023/01/04 06:20:09;;;;;;;8.33;6.03;;;;;;;;;;4981696;28;20200;-77
2023/01/04 06:22:37;;;;;;;11.13;7.97;;;;;;;;;;4969190;28;20222;-77
2023/01/04 06:25:04;;;;;;;9.50;6.40;;;;;;;;;;4977304;28;20658;-79
2023/01/04 06:27:31;;;;;;;9.57;6.27;;;;;;;;;;4979597;28;20231;-79
2023/01/04 06:29:59;;;;;;;10.87;7.83;;;;;;;;;;4975278;28;20239;-76
2023/01/04 06:32:26;;;;;;;11.20;7.47;;;;;;;;;;4969375;28;20208;-77
2023/01/04 06:34:53;;;;;;;11.27;7.60;;;;;;;;;;4978592;28;20765;-78
2023/01/04 06:37:21;;;;;;;9.37;6.27;;;;;;;;;;4976955;28;20318;-79
2023/01/04 06:39:48;;;;;;;7.70;6.03;;;;;;;;;;4973977;28;20219;-78
2023/01/04 06:45:04;;;;;;;8.17;6.03;;;;;;;;;;4969736;28;20200;-78
2023/01/04 06:47:32;;;;;;;7.33;5.70;;;;;;;;;;4976118;28;20730;-76
2023/01/04 06:49:59;;;;;;;8.07;5.60;;;;;;;;;;4973194;28;20208;-77
2023/01/04 06:52:26;;;;;;;6.37;5.27;;;;;;;;;;4972946;28;20611;-78
2023/01/04 06:54:54;;;;;;;7.27;5.47;;;;;;;;;;4972256;28;20716;-77
2023/01/04 06:57:21;;;;;;;6.70;5.13;;;;;;;;;;4971499;28;20297;-79
2023/01/04 06:59:48;;;;;;;8.97;5.93;;;;;;;;;;4971460;28;20205;-78
2023/01/04 07:02:16;;;;;;;7.67;5.50;;;;;;;;;;4970934;28;20300;-78
2023/01/04 07:04:43;;;;;;;8.63;5.20;;;;;;;;;;4968845;28;20590;-79
2023/01/04 07:07:11;;;;;;;7.73;5.33;;;;;;;;;;4969418;28;20243;-76
2023/01/04 07:09:38;;;;;;;6.07;4.93;;;;;;;;;;4972052;28;20216;-78
2023/01/04 07:12:05;;;;;;;6.80;4.90;;;;;;;;;;4987909;28;20231;-79
2023/01/04 07:14:33;;;;;;;6.37;4.93;;;;;;;;;;4986491;28;20290;-78
2023/01/04 07:17:00;;;;;;;6.13;5.00;;;;;;;;;;4979898;28;20247;-78
2023/01/04 07:19:27;;;;;;;7.27;4.73;;;;;;;;;;4984706;28;20295;-77
2023/01/04 07:21:57;;;;;;;8.23;5.50;;;;;;;;;;4976167;28;20294;-79
2023/01/04 07:24:25;;;;;;;6.30;5.00;;;;;;;;;;4980455;28;20260;-77
2023/01/04 07:26:58;;;;;;;10.73;5.60;;;;;;;;;;4985072;28;20224;-79
2023/01/04 07:29:25;;;;;;;7.20;5.13;;;;;;;;;;4979004;28;20669;-79
2023/01/04 07:31:53;;;;;;;7.00;5.47;;;;;;;;;;4981017;28;20204;-79
2023/01/04 07:34:21;;;;;;;7.63;5.00;;;;;;;;;;4985878;28;20287;-78
2023/01/04 07:36:49;;;;;;;8.03;5.30;;;;;;;;;;4981396;28;20232;-77
2023/01/04 07:39:17;;;;;;;6.53;5.20;;;;;;;;;;4978485;28;20208;-78
2023/01/04 07:41:45;;;;;;;7.77;4.90;;;;;;;;;;4977340;28;20199;-78
2023/01/04 07:44:12;;;;;;;6.20;4.80;;;;;;;;;;4978324;28;20211;-78
2023/01/04 07:46:41;;;;;;;6.30;4.93;;;;;;;;;;4974851;28;20212;-78
2023/01/04 07:49:13;;;;;;;7.10;5.37;;;;;;;;;;4968571;28;20205;-76
2023/01/04 07:51:44;;;;;;;6.00;5.10;;;;;;;;;;4967378;28;23678;-77
2023/01/04 07:54:12;;;;;;;6.23;4.83;;;;;;;;;;4989559;28;20236;-79
2023/01/04 07:56:39;;;;;;;7.47;5.83;;;;;;;;;;4991364;28;20306;-77
2023/01/04 07:59:07;;;;;;;5.80;4.60;;;;;;;;;;4985209;28;20748;-75
2023/01/04 08:01:37;;;;;;;8.57;5.70;;;;;;;;;;4966744;28;20335;-77
2023/01/04 08:04:05;;;;;;;7.60;4.80;;;;;;;;;;4975646;28;20196;-79
2023/01/04 08:06:33;;;;;;;5.30;4.67;;;;;;;;;;4970657;28;20225;-77
2023/01/04 08:09:03;;;;;;;6.93;5.20;;;;;;;;;;4971116;28;20272;-76
2023/01/04 08:11:30;;;;;;;4.97;4.33;;;;;;;;;;4957495;28;20346;-79
2023/01/04 08:13:57;;;;;;;6.10;4.33;;;;;;;;;;4979724;28;20216;-80
2023/01/04 08:16:27;;;;;;;6.20;4.13;;;;;;;;;;4970435;28;20229;-80
2023/01/04 08:18:55;;;;;;;4.47;3.40;;;;;;;;;;4974643;28;20272;-80
2023/01/04 08:21:23;;;;;;;4.27;3.57;;;;;;;;;;4977572;28;20885;-79
2023/01/04 08:23:51;;;;;;;4.93;3.53;;;;;;;;;;4979394;28;20214;-80
2023/01/04 08:26:20;;;;;;;4.17;3.60;;;;;;;;;;4979470;28;20213;-79
2023/01/04 08:28:48;;;;;;;4.60;3.53;;;;;;;;;;4983466;28;20322;-80
2023/01/04 08:31:16;;;;;;;5.37;3.83;;;;;;;;;;4984700;28;20211;-78
2023/01/04 08:33:44;;;;;;;3.87;3.47;;;;;;;;;;4980072;28;20247;-79
2023/01/04 08:36:16;;;;;;;5.00;3.77;;;;;;;;;;4977669;28;20669;-79
2023/01/04 08:38:53;;;;;;;3.63;3.20;;;;;;;;;;4974152;28;20282;-79
2023/01/04 08:41:28;;;;;;;3.63;3.27;;;;;;;;;;4981793;28;20207;-79
2023/01/04 08:44:16;;;;;;;3.90;3.33;;;;;;;;;;4981499;28;20200;-80
2023/01/04 08:46:44;;;;;;;3.63;3.03;;;;;;;;;;4965829;28;20208;-80
2023/01/04 08:49:13;;;;;;;3.40;3.10;;;;;;;;;;4971136;28;20243;-78
2023/01/04 08:51:41;;;;;;;4.27;3.30;;;;;;;;;;4973142;28;20307;-80
2023/01/04 08:54:08;;;;;;;3.80;3.00;;;;;;;;;;4966737;28;20605;-79
2023/01/04 08:56:36;;;;;;;3.10;2.80;;;;;;;;;;4967460;28;20224;-80
2023/01/04 08:59:03;;;;;;;4.03;2.70;;;;;;;;;;4976835;28;20300;-77
2023/01/04 09:01:31;;;;;;;4.17;3.40;;;;;;;;;;4965858;28;20220;-79
2023/01/04 09:03:59;;;;;;;3.60;3.10;;;;;;;;;;4966258;28;20211;-77
2023/01/04 09:06:27;;;;;;;4.10;3.20;;;;;;;;;;4971095;28;20216;-78
2023/01/04 09:08:55;;;;;;;5.23;3.03;;;;;;;;;;4963415;28;20209;-75
2023/01/04 09:11:23;;;;;;;3.37;2.50;;;;;;;;;;4969299;28;20228;-78
2023/01/04 09:13:54;;;;;;;3.60;2.50;;;;;;;;;;4973029;28;20234;-78
2023/01/04 09:16:30;;;;;;;3.57;2.50;;;;;;;;;;4959071;28;20235;-77
2023/01/04 09:18:57;;;;;;;2.60;2.40;;;;;;;;;;4968524;28;21095;-79
2023/01/04 09:21:25;;;;;;;2.60;2.40;;;;;;;;;;4974266;28;20692;-80
2023/01/04 09:23:52;;;;;;;3.33;2.40;;;;;;;;;;4963774;28;20209;-80
2023/01/04 09:26:21;;;;;;;2.70;2.30;;;;;;;;;;4963408;28;20316;-77
2023/01/04 09:28:52;;;;;;;5.10;2.27;;;;;;;;;;4970067;28;20255;-78
2023/01/04 09:31:28;;;;;;;2.80;2.43;;;;;;;;;;4969491;28;20200;-76
2023/01/04 09:33:56;;;;;;;4.83;2.50;;;;;;;;;;4976185;28;20235;-77
2023/01/04 09:36:44;;;;;;;2.93;2.40;;;;;;;;;;4959700;28;20229;-77
2023/01/04 09:39:12;;;;;;;4.83;2.60;;;;;;;;;;4961884;28;20212;-79
2023/01/04 09:41:56;;;;;;;5.77;2.47;;;;;;;;;;4966871;28;20201;-78
2023/01/04 09:44:24;;;;;;;5.13;3.20;;;;;;;;;;4972233;28;20235;-79
2023/01/04 09:47:17;;;;;;;2.40;2.20;;;;;;;;;;4971214;28;20228;-78
2023/01/04 09:49:52;;;;;;;2.43;1.93;;;;;;;;;;4971835;28;20275;-80
2023/01/04 09:52:22;;;;;;;2.60;2.40;;;;;;;;;;4970248;28;20366;-80
2023/01/04 09:54:58;;;;;;;2.10;1.90;;;;;;;;;;4963481;28;20282;-77
2023/01/04 09:57:49;;;;;;;2.90;1.70;;;;;;;;;;4968144;28;20243;-76
2023/01/04 10:00:23;;;;;;;3.00;2.00;;;;;;;;;;4976815;28;20200;-79
2023/01/04 10:03:04;;;;;;;1.90;1.80;;;;;;;;;;4975900;28;20284;-76
2023/01/04 10:05:32;;;;;;;2.77;1.67;;;;;;;;;;4968742;28;20751;-78
2023/01/04 10:08:01;;;;;;;2.30;1.90;;;;;;;;;;4962987;28;20230;-77
2023/01/04 10:10:49;;;;;;;1.90;1.63;;;;;;;;;;4959778;28;20323;-79
2023/01/04 10:13:19;;;;;;;3.63;2.20;;;;;;;;;;4947590;28;20218;-77
2023/01/04 10:15:51;;;;;;;2.13;1.60;;;;;;;;;;4977004;28;20200;-80
2023/01/04 10:18:30;;;;;;;2.70;1.73;;;;;;;;;;4974917;28;20247;-79
2023/01/04 10:21:17;;;;;;;2.90;1.80;;;;;;;;;;4970721;28;20992;-78
2023/01/04 10:24:01;;;;;;;1.93;1.80;;;;;;;;;;4974489;28;20430;-78
2023/01/04 10:26:39;;;;;;;3.20;1.87;;;;;;;;;;4956326;28;20583;-78
2023/01/04 10:29:06;;;;;;;2.43;1.87;;;;;;;;;;4971725;28;20211;-81
2023/01/04 10:31:43;;;;;;;2.77;1.70;;;;;;;;;;4973378;28;20231;-77
2023/01/04 10:34:15;;;;;;;3.03;1.87;;;;;;;;;;4967720;28;20555;-76
2023/01/04 10:36:45;;;;;;;1.90;1.70;;;;;;;;;;4965213;28;20300;-75
2023/01/04 10:39:15;;;;;;;2.20;1.90;;;;;;;;;;4974462;28;20607;-79
2023/01/04 10:41:44;;;;;;;2.07;1.97;;;;;;;;;;4974259;28;20685;-77
2023/01/04 10:44:41;;;;;;;2.10;1.70;;;;;;;;;;4973514;28;21498;-80
2023/01/04 10:47:15;;;;;;;4.47;2.27;;;;;;;;;;4915030;28;20324;-76
2023/01/04 10:49:48;;;;;;;2.07;1.90;;;;;;;;;;4969442;28;21646;-80
2023/01/04 10:52:22;;;;;;;2.30;2.10;;;;;;;;;;4973870;28;20212;-77
2023/01/04 10:54:55;;;;;;;4.27;2.23;;;;;;;;;;4973253;28;20243;-77
2023/01/04 10:57:35;;;;;;;2.20;2.00;;;;;;;;;;4958002;28;20239;-76
2023/01/04 11:00:08;;;;;;;3.33;2.20;;;;;;;;;;4965699;28;20313;-77
2023/01/04 11:02:35;;;;;;;3.90;2.20;;;;;;;;;;4969762;28;21539;-78
2023/01/04 11:05:06;;;;;;;2.30;2.10;;;;;;;;;;4966607;28;20200;-77
2023/01/04 11:07:39;;;;;;;2.60;2.40;;;;;;;;;;4966811;28;20248;-79
2023/01/04 11:10:10;;;;;;;2.40;2.20;;;;;;;;;;4972807;28;20226;-81
2023/01/04 11:12:37;;;;;;;4.60;2.30;;;;;;;;;;4964063;28;21513;-79
2023/01/04 11:15:04;;;;;;;2.50;2.20;;;;;;;;;;4970155;28;20482;-79
2023/01/04 11:17:32;;;;;;;3.40;2.20;;;;;;;;;;4969177;28;20340;-77
2023/01/04 11:19:59;;;;;;;2.80;2.60;;;;;;;;;;4960105;28;20215;-80
2023/01/04 11:22:31;;;;;;;2.60;2.40;;;;;;;;;;4961292;28;20350;-80
2023/01/04 11:25:03;;;;;;;2.90;2.10;;;;;;;;;;4967370;28;20790;-79
2023/01/04 11:28:00;;;;;;;2.60;2.40;;;;;;;;;;4963126;28;20238;-78
2023/01/04 11:30:37;;;;;;;2.67;2.30;;;;;;;;;;4956725;28;20719;-79
2023/01/04 11:33:14;;;;;;;5.10;3.97;;;;;;;;;;4969792;28;20284;-81
2023/01/04 11:35:43;;;;;;;10.33;9.43;;;;;;;;;;4963811;28;20212;-76
2023/01/04 11:38:20;;;;;;;28.27;25.57;;;;;;;;;;4974621;28;20232;-77
2023/01/04 11:41:01;;;;;;;7.57;6.87;;;;;;;;;;4971499;28;20769;-77
2023/01/04 11:43:29;;;;;;;4.07;2.73;;;;;;;;;;4973455;28;20737;-77
2023/01/04 11:45:59;;;;;;;3.07;2.30;;;;;;;;;;4968827;28;20284;-76
2023/01/04 11:48:35;;;;;;;3.27;2.77;;;;;;;;;;4973196;28;20243;-79
2023/01/04 11:51:03;;;;;;;2.50;2.30;;;;;;;;;;4970717;28;20764;-79
2023/01/04 11:53:35;;;;;;;2.67;2.40;;;;;;;;;;4961286;28;20599;-79
2023/01/04 11:56:14;;;;;;;2.93;2.23;;;;;;;;;;4972208;28;20674;-80
2023/01/04 11:58:43;;;;;;;2.60;1.63;;;;;;;;;;4981111;28;20291;-78
2023/01/04 12:01:21;;;;;;;1.90;1.80;;;;;;;;;;4974037;28;20265;-78
2023/01/04 12:03:48;;;;;;;2.70;2.10;;;;;;;;;;4972960;28;20216;-79
2023/01/04 12:06:54;;;;;;;2.27;2.10;;;;;;;;;;4978155;28;20219;-77
2023/01/04 12:09:21;;;;;;;2.17;2.00;;;;;;;;;;4904393;29;20206;-79
2023/01/04 12:11:53;;;;;;;3.50;2.10;;;;;;;;;;4969582;28;20200;-80
2023/01/04 12:14:25;;;;;;;2.70;2.50;;;;;;;;;;4979095;28;20352;-78
2023/01/04 12:17:04;;;;;;;4.00;2.10;;;;;;;;;;4984675;28;20326;-77
2023/01/04 12:19:32;;;;;;;2.20;2.00;;;;;;;;;;4991011;28;20294;-79
2023/01/04 12:22:00;;;;;;;2.27;1.80;;;;;;;;;;4990670;28;20204;-77
2023/01/04 12:24:29;;;;;;;1.97;1.87;;;;;;;;;;4980117;28;20639;-78
2023/01/04 12:26:57;;;;;;;3.07;1.83;;;;;;;;;;4987654;28;20228;-77
2023/01/04 12:29:24;;;;;;;3.67;1.83;;;;;;;;;;4985528;28;20755;-79
2023/01/04 12:31:52;;;;;;;1.87;1.60;;;;;;;;;;4981021;28;20271;-78
2023/01/04 12:34:24;;;;;;;1.90;1.80;;;;;;;;;;4988038;28;20232;-79
2023/01/04 12:36:52;;;;;;;2.17;1.97;;;;;;;;;;4980654;28;20240;-79
2023/01/04 12:39:22;;;;;;;2.13;1.90;;;;;;;;;;4994645;28;20224;-80
2023/01/04 12:42:02;;;;;;;3.73;1.77;;;;;;;;;;4984462;28;20384;-79
2023/01/04 12:44:38;;;;;;;2.73;1.73;;;;;;;;;;4985559;28;20196;-76
2023/01/04 12:49:57;;;;;;;1.80;1.70;;;;;;;;;;4983992;28;20266;-77
2023/01/04 12:52:24;;;;;;;1.73;1.60;;;;;;;;;;4973490;28;20215;-79
2023/01/04 12:55:23;;;;;;;1.97;1.70;;;;;;;;;;4973269;28;20208;-80
2023/01/04 12:57:51;;;;;;;1.97;1.63;;;;;;;;;;4977910;28;20290;-79
2023/01/04 13:00:18;;;;;;;2.00;1.90;;;;;;;;;;4976051;28;20634;-78
2023/01/04 13:02:49;;;;;;;1.87;1.77;;;;;;;;;;4970431;28;20336;-78
2023/01/04 13:05:16;;;;;;;2.77;2.33;;;;;;;;;;4979869;28;20213;-78
2023/01/04 13:08:08;;;;;;;4.30;3.00;;;;;;;;;;4986034;28;20258;-79
2023/01/04 13:10:38;;;;;;;2.33;1.80;;;;;;;;;;4974831;28;20374;-79
2023/01/04 13:13:24;;;;;;;3.73;2.47;;;;;;;;;;4966793;28;20204;-75
2023/01/04 13:16:02;;;;;;;2.63;2.33;;;;;;;;;;4981808;28;20227;-78
2023/01/04 13:18:34;;;;;;;2.77;2.00;;;;;;;;;;4978884;28;20677;-79
2023/01/04 13:21:02;;;;;;;3.03;2.17;;;;;;;;;;4974825;28;20209;-77
2023/01/04 13:23:30;;;;;;;1.97;1.80;;;;;;;;;;4977720;28;20208;-78
2023/01/04 13:26:17;;;;;;;2.07;1.47;;;;;;;;;;4967499;28;20200;-80
2023/01/04 13:28:47;;;;;;;2.00;1.90;;;;;;;;;;4980045;28;20240;-79
2023/01/04 13:31:19;;;;;;;1.80;1.70;;;;;;;;;;4979266;28;20220;-78
2023/01/04 13:33:47;;;;;;;2.13;1.70;;;;;;;;;;4979470;28;20282;-79
2023/01/04 13:36:15;;;;;;;1.70;1.60;;;;;;;;;;4966421;28;20315;-78
2023/01/04 13:38:42;;;;;;;4.30;2.37;;;;;;;;;;4979753;28;20275;-76
2023/01/04 13:41:19;;;;;;;3.73;2.07;;;;;;;;;;4977047;28;20208;-80
2023/01/04 13:44:22;;;;;;;2.77;1.83;;;;;;;;;;4982871;28;20290;-79
2023/01/04 13:47:09;;;;;;;2.50;1.80;;;;;;;;;;4906742;29;20246;-78
2023/01/04 13:49:37;;;;;;;2.77;2.43;;;;;;;;;;4982718;28;20200;-78
2023/01/04 13:52:24;;;;;;;2.03;1.83;;;;;;;;;;4973722;28;20200;-78
2023/01/04 13:55:22;;;;;;;5.33;2.43;;;;;;;;;;4987029;28;20204;-79
2023/01/04 13:57:53;;;;;;;2.33;2.13;;;;;;;;;;4978341;28;20347;-78
2023/01/04 14:00:20;;;;;;;3.33;2.20;;;;;;;;;;4977150;28;20332;-80
2023/01/04 14:03:01;;;;;;;2.43;2.23;;;;;;;;;;4975919;28;20259;-79
2023/01/04 14:05:28;;;;;;;2.53;2.33;;;;;;;;;;4981957;28;20258;-77
2023/01/04 14:07:56;;;;;;;2.87;2.50;;;;;;;;;;4977894;28;20298;-79
2023/01/04 14:10:24;;;;;;;3.37;2.43;;;;;;;;;;4970580;28;20295;-77
2023/01/04 14:12:52;;;;;;;2.70;2.50;;;;;;;;;;4971106;28;20205;-77
2023/01/04 14:15:24;;;;;;;2.60;2.37;;;;;;;;;;4981669;28;20200;-77
2023/01/04 14:17:53;;;;;;;2.87;2.57;;;;;;;;;;4975299;28;20235;-80
2023/01/04 14:20:23;;;;;;;3.10;2.80;;;;;;;;;;4973972;28;20296;-77
2023/01/04 14:22:52;;;;;;;4.47;2.77;;;;;;;;;;4987595;28;20199;-78
2023/01/04 14:25:29;;;;;;;3.03;2.40;;;;;;;;;;4984752;28;20275;-80
2023/01/04 14:28:17;;;;;;;4.50;2.50;;;;;;;;;;4975015;28;20231;-76
2023/01/04 14:30:59;;;;;;;3.53;2.80;;;;;;;;;;4974441;28;20247;-78
2023/01/04 14:33:34;;;;;;;2.50;2.30;;;;;;;;;;4979716;28;20208;-79
2023/01/04 14:36:11;;;;;;;3.70;2.60;;;;;;;;;;4975172;28;21286;-80
2023/01/04 14:38:58;;;;;;;3.10;2.60;;;;;;;;;;4979031;28;20957;-78
2023/01/04 14:41:28;;;;;;;3.10;2.50;;;;;;;;;;4971557;28;20213;-77
2023/01/04 14:43:55;;;;;;;2.60;2.40;;;;;;;;;;4970471;28;20235;-79
2023/01/04 14:46:22;;;;;;;29.23;18.33;;;;;;;;;;4969194;28;20218;-79
2023/01/04 14:48:50;;;;;;;4.37;3.67;;;;;;;;;;4981485;28;20283;-77
2023/01/04 14:51:18;;;;;;;4.83;3.10;;;;;;;;;;4977975;28;20208;-78
2023/01/04 14:53:46;;;;;;;3.20;2.90;;;;;;;;;;4961939;28;20200;-78
2023/01/04 14:56:14;;;;;;;3.50;3.20;;;;;;;;;;4973422;28;20307;-79
2023/01/04 14:58:42;;;;;;;3.53;2.63;;;;;;;;;;4971989;28;20329;-79
2023/01/04 15:01:10;;;;;;;3.33;2.80;;;;;;;;;;4976522;28;20272;-77
2023/01/04 15:03:38;;;;;;;4.13;3.00;;;;;;;;;;4973892;28;20303;-78
2023/01/04 15:06:06;;;;;;;3.73;2.97;;;;;;;;;;4973503;28;20213;-74
2023/01/04 15:08:33;;;;;;;3.40;2.83;;;;;;;;;;4974323;28;20323;-79
2023/01/04 15:11:01;;;;;;;3.13;2.83;;;;;;;;;;4980359;28;20259;-79
2023/01/04 15:13:30;;;;;;;4.40;3.00;;;;;;;;;;4966043;28;20213;-77
2023/01/04 15:16:05;;;;;;;3.40;3.10;;;;;;;;;;4972348;28;20263;-78
2023/01/04 15:18:36;;;;;;;4.80;3.80;;;;;;;;;;4979383;28;20234;-81
2023/01/04 15:21:03;;;;;;;3.33;3.03;;;;;;;;;;4966202;28;20205;-79
2023/01/04 15:23:32;;;;;;;2.70;2.50;;;;;;;;;;4952955;28;20210;-79
2023/01/04 15:26:00;;;;;;;3.13;2.83;;;;;;;;;;4962992;28;20456;-78
2023/01/04 15:28:28;;;;;;;2.70;2.50;;;;;;;;;;4944049;28;20231;-77
2023/01/04 15:30:55;;;;;;;3.17;2.60;;;;;;;;;;4964620;28;20394;-79
2023/01/04 15:33:23;;;;;;;4.63;2.50;;;;;;;;;;4960633;28;20339;-79
2023/01/04 15:36:00;;;;;;;2.70;2.50;;;;;;;;;;4971050;28;20212;-77
2023/01/04 15:38:27;;;;;;;2.50;2.30;;;;;;;;;;4975557;28;20287;-79
2023/01/04 15:41:03;;;;;;;3.70;2.80;;;;;;;;;;4974773;28;20505;-78
2023/01/04 15:43:33;;;;;;;3.07;2.50;;;;;;;;;;4971577;28;20310;-79
2023/01/04 15:46:03;;;;;;;2.70;2.50;;;;;;;;;;4977572;28;20258;-80